createdAt,value
2022-08-24T00:00:00.000Z,19.28
2022-08-24T00:15:00.000Z,19.32
2022-08-24T00:30:00.000Z,19.15
2022-08-24T00:45:00.000Z,18.87
2022-08-24T01:00:00.000Z,18.57
2022-08-24T01:15:00.000Z,18.34
2022-08-24T01:30:00.000Z,18.3
2022-08-24T01:45:00.000Z,17.99
2022-08-24T02:00:00.000Z,17.9
2022-08-24T02:15:00.000Z,17.76
2022-08-24T02:30:00.000Z,17.72
2022-08-24T02:45:00.000Z,17.55
2022-08-24T03:00:00.000Z,17.75
2022-08-24T03:15:00.000Z,17.57
2022-08-24T03:30:00.000Z,17.37
2022-08-24T03:45:00.000Z,16.99
2022-08-24T04:00:00.000Z,17
2022-08-24T04:15:00.000Z,17.1
2022-08-24T04:30:00.000Z,17.04
2022-08-24T04:45:00.000Z,16.95
2022-08-24T05:00:00.000Z,16.99
2022-08-24T05:15:00.000Z,17.19
2022-08-24T05:30:00.000Z,17.36
2022-08-24T05:45:00.000Z,17.72
2022-08-24T06:00:00.000Z,18.32
2022-08-24T06:15:00.000Z,18.76
2022-08-24T06:30:00.000Z,19.33
2022-08-24T06:45:00.000Z,20.03
2022-08-24T07:00:00.000Z,21.04
2022-08-24T07:15:00.000Z,21.86
2022-08-24T07:30:00.000Z,23.64
2022-08-24T07:45:00.000Z,26.61
2022-08-24T08:00:00.000Z,28.25
2022-08-24T08:15:00.000Z,28.56
2022-08-24T08:30:00.000Z,29.24
2022-08-24T08:45:00.000Z,29.18
2022-08-24T09:00:00.000Z,30.02
2022-08-24T09:15:00.000Z,30.68
2022-08-24T09:30:00.000Z,31.25
2022-08-24T09:45:00.000Z,30.71
2022-08-24T10:00:00.000Z,30.79
2022-08-24T10:15:00.000Z,30.9
2022-08-24T10:30:00.000Z,30.65
2022-08-24T10:45:00.000Z,30.25
2022-08-24T11:00:00.000Z,30.61
2022-08-24T11:15:00.000Z,30.64
2022-08-24T11:30:00.000Z,30.28
2022-08-24T11:45:00.000Z,30.02
2022-08-24T12:00:00.000Z,29.72
2022-08-24T12:15:00.000Z,28.93
2022-08-24T12:30:00.000Z,28.78
2022-08-24T12:45:00.000Z,28.63
2022-08-24T13:00:00.000Z,28.46
2022-08-24T13:15:00.000Z,28.63
2022-08-24T13:30:00.000Z,27.96
2022-08-24T13:45:00.000Z,28.18
2022-08-24T14:00:00.000Z,27.99
2022-08-24T14:15:00.000Z,27.47
2022-08-24T14:30:00.000Z,27.24
2022-08-24T14:45:00.000Z,27.15
2022-08-24T15:00:00.000Z,27.03
2022-08-24T15:15:00.000Z,26.68
2022-08-24T15:30:00.000Z,26.75
2022-08-24T15:45:00.000Z,26.77
2022-08-24T16:00:00.000Z,26.49
2022-08-24T16:15:00.000Z,26.34
2022-08-24T16:30:00.000Z,26.23
2022-08-24T16:45:00.000Z,25.99
2022-08-24T17:00:00.000Z,25.63
2022-08-24T17:15:00.000Z,25.25
2022-08-24T17:30:00.000Z,24.89
2022-08-24T17:45:00.000Z,24.54
2022-08-24T18:00:00.000Z,24.18
2022-08-24T18:15:00.000Z,23.94
2022-08-24T18:30:00.000Z,23.62
2022-08-24T18:45:00.000Z,23.38
2022-08-24T19:00:00.000Z,23.03
2022-08-24T19:15:00.000Z,22.97
2022-08-24T19:30:00.000Z,22.72
2022-08-24T19:45:00.000Z,22.52
2022-08-24T20:00:00.000Z,22.19
2022-08-24T20:15:00.000Z,21.86
2022-08-24T20:30:00.000Z,21.57
2022-08-24T20:45:00.000Z,21.26
2022-08-24T21:00:00.000Z,20.9
2022-08-24T21:15:00.000Z,20.79
2022-08-24T21:30:00.000Z,20.8
2022-08-24T21:45:00.000Z,20.72
2022-08-24T22:00:00.000Z,20.56
2022-08-24T22:15:00.000Z,20.17
2022-08-24T22:30:00.000Z,20.13
2022-08-24T22:45:00.000Z,19.96
2022-08-24T23:00:00.000Z,19.91
2022-08-24T23:15:00.000Z,19.88
2022-08-24T23:30:00.000Z,19.83
2022-08-24T23:45:00.000Z,19.64
